Main page
METAR-TAF:

METAR-TAF

Airports :

Cervia Air Base

Cervia, Italy

latitude: 44-13N, longitude: 012-18E, elevation: 6 m

Current weather observation

The report was made 48 minutes ago, at 15:55 UTC
Wind 5 kt from the East/Northeast
Temperature 10°C
Humidity 76%
Pressure 1024 hPa
Visibility 10 km or more
no clouds below 1500 m and no cumulonimbus

METAR: LIPC 211555Z 06005KT CAVOK 10/06 Q1024 RMK FEW FEW200 VIS MIN 9999 WIND THR11 07005KT WIND THR29 07004KT BLU

Time: 17:43 (16:43 UTC)

Forecast

The report was made 2 hours and 43 minutes ago, at 14:00 UTC
Forecast valid from 21 at 15 UTC to 21 at 24 UTC
Wind 7 kt from the East/Northeast
Visibility 10 km or more
no clouds below 1500 m and no cumulonimbus

TAF: LIPC 211400Z 2115/2124 07007KT CAVOK

Weather observations and forecasts of more than 4000 airports (METAR and TAF reports).

The available stations are represented by yellow and red dots on the map.

Hover mouse over dot to see the name of the station.

Then click to see weather observations and forecasts.

To change the map : click on the green buttons with a black cross to zoom in, on the green button with a dash to zoom out, or on the green arrows for adjacent maps.


METAR-TAF: